• Join FlightAware (Why Join?)
  • Login
  • US Flag 
02:29AM EST


 

Airport Tracker/Info


-or-


 

Live Flight TrackerFlight Track Log ✈ SWA2236 ✈ 15-Jul-2013 ✈ KJAX - KBWI

Flight Track Log - Related Links

Times and Time Zones

All times are in EDT time to prevent confusion due to time zone crossing. See the SWA2236 flight status page for this flight to view local times or setup timezone preferences in your user account.

Time Position Orientation Groundspeed Altitude Reporting Facility
EDT Latitude Longitude Course Direction KTS MPH feet Rate Location/Type
07:30PM 30.5153 -81.6483 61° Northeast 133 153 2,500  Level Jacksonville Center
07:31PM 30.5569 -81.6431 North 220 253 4,400 2,760 Climbing Jacksonville Center
07:32PM 30.6278 -81.6444 359° North 264 304 7,400 3,360 Climbing Jacksonville Center
07:33PM 30.7092 -81.6433 North 289 333 11,200 3,300 Climbing Jacksonville Center
07:34PM 30.8011 -81.6447 359° North 307 353 14,000 3,000 Climbing Jacksonville Center
07:35PM 30.9033 -81.6408 North 340 391 17,300 3,180 Climbing Jacksonville Center
07:36PM 31.0075 -81.6178 11° North 353 406 20,400 2,940 Climbing Jacksonville Center
07:37PM 31.1094 -81.5797 18° North 374 430 23,200 3,000 Climbing Jacksonville Center
07:38PM 31.2136 -81.5419 17° North 384 442 26,500 3,000 Climbing Jacksonville Center
07:39PM 31.3133 -81.5064 17° North 378 435 29,200 2,340 Climbing Jacksonville Center
07:40PM 31.4067 -81.4467 29° Northeast 373 429 31,200 1,920 Climbing Jacksonville Center
07:41PM 31.4872 -81.3822 34° Northeast 386 444 33,100 1,800 Climbing Jacksonville Center
07:42PM 31.5994 -81.3292 22° Northeast 386 444 34,900 1,500 Climbing Jacksonville Center
07:43PM 31.6969 -81.2811 23° Northeast 396 456 36,200 1,320 Climbing Jacksonville Center
07:44PM 31.8111 -81.2203 24° Northeast 409 471 37,600 1,260 Climbing Jacksonville Center
07:45PM 31.9231 -81.1619 24° Northeast 425 489 38,800 1,260 Climbing Jacksonville Center
07:46PM 32.0308 -81.1061 24° Northeast 425 489 40,200 1,080 Climbing Jacksonville Center
07:47PM 32.1319 -81.0231 35° Northeast 425 489 41,000 360 Climbing Jacksonville Center
07:48PM 32.2206 -80.9550 33° Northeast 433 498 41,000  Level Jacksonville Center
07:49PM 32.3258 -80.8717 34° Northeast 417 480 41,000  Level Jacksonville Center
07:50PM 32.4183 -80.7908 36° Northeast 420 483 41,000  Level Jacksonville Center
07:51PM 32.5172 -80.7097 35° Northeast 420 483 41,000  Level Jacksonville Center
07:52PM 32.6139 -80.6311 34° Northeast 420 483 41,000  Level Jacksonville Center
07:53PM 32.7086 -80.5522 35° Northeast 420 483 41,000  Level Jacksonville Center
07:54PM 32.8031 -80.4706 36° Northeast 420 483 41,000  Level Jacksonville Center
07:55PM 32.8975 -80.3939 34° Northeast 420 483 41,000  Level Jacksonville Center
07:56PM 32.9900 -80.3169 35° Northeast 438 504 41,000  Level Jacksonville Center
07:57PM 33.0883 -80.2347 35° Northeast 433 498 41,000  Level Jacksonville Center
07:58PM 33.1847 -80.1550 35° Northeast 433 498 41,000  Level Jacksonville Center
07:59PM 33.2792 -80.0750 35° Northeast 426 490 41,000  Level Jacksonville Center
08:00PM 33.3733 -79.9950 35° Northeast 421 484 41,000  Level Jacksonville Center
08:01PM 33.4714 -79.9122 35° Northeast 421 484 41,000  Level Jacksonville Center
08:02PM 33.5656 -79.8317 35° Northeast 421 484 41,000  Level Jacksonville Center
08:03PM 33.6597 -79.7511 35° Northeast 421 484 41,000  Level Jacksonville Center
08:04PM 33.7556 -79.6703 35° Northeast 421 484 41,000  Level Jacksonville Center
08:05PM 33.8494 -79.5867 36° Northeast 421 484 41,000  Level Jacksonville Center
08:06PM 33.9433 -79.5081 35° Northeast 421 484 41,000  Level Jacksonville Center
08:08PM 34.1661 -79.3164 35° Northeast 414 476 41,000  Level Washington Center
08:09PM 34.2539 -79.2400 36° Northeast 423 487 41,000  Level Washington Center
08:10PM 34.3461 -79.1586 36° Northeast 423 487 41,000  Level Washington Center
08:11PM 34.4444 -79.0797 33° Northeast 417 480 41,000  Level Washington Center
08:12PM 34.5506 -79.0189 25° Northeast 417 480 41,000  Level Washington Center
08:13PM 34.6564 -78.9600 25° Northeast 412 474 41,000 -120 Level Washington Center
08:14PM 34.7644 -78.9039 23° Northeast 412 474 40,800 -660 Descending Washington Center
08:15PM 34.8725 -78.8425 25° Northeast 412 474 39,800 -1,020 Descending Washington Center
08:16PM 34.9764 -78.7858 24° Northeast 407 468 38,800 -900 Descending Washington Center
08:17PM 35.0864 -78.7242 25° Northeast 407 468 38,000 -900 Descending Washington Center
08:18PM 35.1967 -78.6625 25° Northeast 413 475 37,000 -540 Descending Washington Center
08:19PM 35.3044 -78.6003 25° Northeast 423 487 37,000  Level Washington Center
08:20PM 35.4294 -78.5286 25° Northeast 441 507 37,000  Level Washington Center
08:21PM 35.5289 -78.4708 25° Northeast 436 502 37,000 -300 Level Washington Center
08:22PM 35.6578 -78.3989 24° Northeast 442 509 36,500 -780 Descending Washington Center
08:23PM 35.7678 -78.3389 24° Northeast 442 509 35,500 -960 Descending Washington Center
08:24PM 35.8778 -78.2758 25° Northeast 442 509 34,600 -960 Descending Washington Center
08:25PM 35.9897 -78.2106 25° Northeast 442 509 33,600 -960 Descending Washington Center
08:26PM 36.1039 -78.1475 24° Northeast 442 509 32,700 -960 Descending Washington Center
08:27PM 36.2178 -78.0789 26° Northeast 442 509 31,700 -1,020 Descending Washington Center
08:28PM 36.3339 -78.0131 25° Northeast 447 514 30,700 -960 Descending Washington Center
08:29PM 36.4353 -77.9517 26° Northeast 447 514 29,900 -900 Descending Washington Center
08:30PM 36.5536 -77.8828 25° Northeast 447 514 29,000 -480 Descending Washington Center
08:31PM 36.6694 -77.8189 24° Northeast 447 514 29,000 -540 Level Washington Center
08:32PM 36.7631 -77.7283 38° Northeast 436 502 28,000 -540 Descending Washington Center
08:33PM 36.8519 -77.6425 38° Northeast 422 486 28,000  Level Washington Center
08:34PM 36.9267 -77.5508 44° Northeast 389 448 28,000  Level Washington Center
08:35PM 36.9825 -77.4508 55° Northeast 365 420 28,000  Level Washington Center
08:36PM 37.0975 -77.4225 11° North 360 414 28,000 -300 Level Washington Center
08:37PM 37.2106 -77.3964 10° North 382 440 27,500 -780 Descending Washington Center
08:38PM 37.3236 -77.3678 11° North 400 460 26,500 -1,080 Descending Washington Center
08:39PM 37.4367 -77.3417 10° North 405 466 25,400 -1,380 Descending Washington Center
08:40PM 37.5436 -77.3128 12° North 405 466 23,800 -1,260 Descending Washington Center
08:41PM 37.6461 -77.2914 North 391 450 23,000 -420 Descending Washington Center
08:42PM 37.7486 -77.2700 North 375 432 23,000 -300 Level Washington Center
08:43PM 37.8511 -77.2486 North 370 426 22,400 -840 Descending Washington Center
08:44PM 37.9556 -77.2272 North 370 426 21,400 -1,020 Descending Washington Center
08:45PM 38.0517 -77.2108 North 365 420 20,400 -1,020 Descending Washington Center
08:46PM 38.1500 -77.1892 10° North 360 414 19,400 -1,260 Descending Washington Center
08:47PM 38.2442 -77.1647 12° North 355 409 17,900 -1,800 Descending Washington Center
08:48PM 38.3383 -77.1481 North 342 394 15,800 -1,500 Descending Washington Center
08:49PM 38.4203 -77.0942 27° Northeast 331 381 14,900 -1,500 Descending Washington Center
08:50PM 38.4839 -77.0158 44° Northeast 315 362 12,900 -1,440 Descending Washington Center
08:51PM 38.5494 -76.9350 44° Northeast 315 362 12,100 -1,200 Descending Washington Center
08:52PM 38.6128 -76.8592 43° Northeast 315 362 10,600 -1,080 Descending Washington Center
08:53PM 38.6697 -76.7883 44° Northeast 296 341 10,000 -840 Descending Washington Center
08:54PM 38.7183 -76.7172 49° Northeast 277 319 9,000 -1,260 Descending Washington Center
08:56PM 38.7833 -76.5500 63° Northeast 260 299 6,500 -1,140 Descending Potomac TRACON
08:57PM 38.8500 -76.5333 11° North 246 283 5,900 -1,020 Descending Potomac TRACON
08:58PM 38.9167 -76.5333 360° North 251 289 4,500 -1,140 Descending Potomac TRACON
08:59PM 38.9833 -76.5500 349° North 242 278 3,700 -900 Descending Potomac TRACON
09:00PM 39.0500 -76.5667 349° North 223 257 2,800 -1,020 Descending Potomac TRACON
09:01PM 39.1000 -76.6000 333° Northwest 185 213 1,700 -960 Descending Potomac TRACON
09:02PM 39.1167 -76.6333 303° West 141 162 1,000 -720 Descending Potomac TRACON
09:03PM 39.1500 -76.6500 339° North 133 153 300 -660 Descending Potomac TRACON
09:05PM 39.1667 -76.6667 339° North  Level FlightAware Approximate
09:12PM 39.1754 -76.6683 339° North  Level Estimated
09:13PM 39.1754 -76.6683 339° North  Level Estimated
09:14PM 39.1754 -76.6683 339° North  Level Estimated
09:15PM 39.1754 -76.6683 339° North  Level Estimated